createdAt,value
2018-06-14T00:00:03.853Z,78.57
2018-06-14T00:01:03.878Z,79.72
2018-06-14T00:02:03.900Z,79.05
2018-06-14T00:03:03.931Z,79.14
2018-06-14T00:04:03.953Z,78.76
2018-06-14T00:05:03.975Z,78.76
2018-06-14T00:06:04.004Z,78.86
2018-06-14T00:07:04.028Z,79.14
2018-06-14T00:08:04.055Z,79.05
2018-06-14T00:09:04.077Z,78.76
2018-06-14T00:10:04.098Z,79.24
2018-06-14T00:11:04.123Z,78.95
2018-06-14T00:12:04.159Z,79.14
2018-06-14T00:13:04.177Z,78.86
2018-06-14T00:14:04.194Z,78.57
2018-06-14T00:15:04.226Z,78.95
2018-06-14T00:16:04.244Z,79.52
2018-06-14T00:17:04.269Z,79.81
2018-06-14T00:18:04.297Z,80.29
2018-06-14T00:19:04.320Z,78.76
2018-06-14T00:20:04.345Z,77.46
2018-06-14T00:21:04.370Z,78.70
2018-06-14T00:22:04.395Z,78.42
2018-06-14T00:23:04.417Z,78.70
2018-06-14T00:24:04.438Z,77.90
2018-06-14T00:25:04.469Z,78.03
2018-06-14T00:26:04.493Z,77.46
2018-06-14T00:27:04.516Z,78.38
2018-06-14T00:28:04.540Z,77.23
2018-06-14T00:29:04.564Z,77.55
2018-06-14T00:30:04.593Z,77.42
2018-06-14T00:31:04.614Z,76.50
2018-06-14T00:32:04.638Z,77.46
2018-06-14T00:33:04.665Z,77.84
2018-06-14T00:34:04.688Z,77.90
2018-06-14T00:35:04.713Z,77.08
2018-06-14T00:36:04.741Z,78.03
2018-06-14T00:37:04.757Z,78.57
2018-06-14T00:38:04.782Z,78.42
2018-06-14T00:39:04.807Z,77.99
2018-06-14T00:40:04.854Z,78.28
2018-06-14T00:41:04.856Z,78.95
2018-06-14T00:42:04.882Z,79.62
2018-06-14T00:43:04.910Z,79.33
2018-06-14T00:44:04.941Z,79.24
2018-06-14T00:45:04.960Z,79.14
2018-06-14T00:46:04.986Z,79.91
2018-06-14T00:47:05.008Z,81.05
2018-06-14T00:48:05.036Z,80.10
2018-06-14T00:49:05.052Z,79.81
2018-06-14T00:50:05.078Z,79.14
2018-06-14T00:51:05.108Z,78.47
2018-06-14T00:52:05.131Z,79.95
2018-06-14T00:53:05.151Z,79.37
2018-06-14T00:54:05.176Z,77.94
2018-06-14T00:55:05.209Z,78.51
2018-06-14T00:56:05.229Z,78.76
2018-06-14T00:57:05.255Z,79.91
2018-06-14T00:58:05.273Z,80.29
2018-06-14T00:59:05.296Z,80.10
2018-06-14T01:00:05.323Z,78.47
2018-06-14T01:01:05.345Z,78.57
2018-06-14T01:02:05.376Z,78.86
2018-06-14T01:03:05.398Z,79.33
2018-06-14T01:04:05.421Z,78.76
2018-06-14T01:05:05.449Z,80.29
2018-06-14T01:06:05.470Z,80.19
2018-06-14T01:07:05.493Z,80.77
2018-06-14T01:08:05.515Z,79.52
2018-06-14T01:09:05.541Z,78.57
2018-06-14T01:10:05.565Z,78.47
2018-06-14T01:11:05.589Z,77.70
2018-06-14T01:12:05.621Z,78.86
2018-06-14T01:13:05.640Z,79.05
2018-06-14T01:14:05.665Z,79.33
2018-06-14T01:15:05.691Z,79.72
2018-06-14T01:16:05.715Z,79.52
2018-06-14T01:17:05.737Z,80.19
2018-06-14T01:18:05.760Z,79.52
2018-06-14T01:19:05.786Z,80.19
2018-06-14T01:20:05.810Z,79.05
2018-06-14T01:21:05.835Z,80.19
2018-06-14T01:22:05.865Z,81.73
2018-06-14T01:23:05.888Z,82.59
2018-06-14T01:24:05.919Z,80.38
2018-06-14T01:25:05.934Z,79.52
2018-06-14T01:26:05.954Z,78.76
2018-06-14T01:27:05.982Z,79.24
2018-06-14T01:28:06.004Z,79.52
2018-06-14T01:29:06.031Z,79.05
2018-06-14T01:30:06.057Z,78.66
2018-06-14T01:31:06.080Z,79.52
2018-06-14T01:32:06.103Z,79.81
2018-06-14T01:33:06.125Z,81.15
2018-06-14T01:34:06.149Z,80.58
2018-06-14T01:35:06.178Z,80.29
2018-06-14T01:36:06.199Z,78.86
2018-06-14T01:37:06.224Z,80.38
2018-06-14T01:38:06.249Z,79.62
2018-06-14T01:39:06.273Z,79.14
2018-06-14T01:40:06.293Z,79.72
2018-06-14T01:41:06.321Z,79.43
2018-06-14T01:42:06.355Z,79.43
2018-06-14T01:43:06.369Z,80.00
2018-06-14T01:44:06.393Z,80.38
2018-06-14T01:45:06.419Z,79.24
2018-06-14T01:46:06.448Z,79.91
2018-06-14T01:47:06.475Z,80.38
2018-06-14T01:48:06.497Z,78.86
2018-06-14T01:49:06.514Z,79.95
2018-06-14T01:50:06.543Z,79.72
2018-06-14T01:51:06.563Z,79.14
2018-06-14T01:52:06.592Z,79.05
2018-06-14T01:53:06.613Z,79.28
2018-06-14T01:54:06.652Z,78.32
2018-06-14T01:55:06.666Z,79.66
2018-06-14T01:56:06.689Z,78.13
2018-06-14T01:57:06.716Z,78.76
2018-06-14T01:58:06.735Z,78.32
2018-06-14T01:59:06.763Z,80.19
2018-06-14T02:00:06.784Z,82.34
2018-06-14T02:01:06.812Z,79.08
2018-06-14T02:02:06.834Z,79.57
2018-06-14T02:03:06.859Z,80.04
2018-06-14T02:04:06.883Z,79.08
2018-06-14T02:05:06.906Z,78.89
2018-06-14T02:06:06.933Z,80.24
2018-06-14T02:07:06.958Z,80.71
2018-06-14T02:08:06.983Z,78.47
2018-06-14T02:09:07.009Z,78.28
2018-06-14T02:10:07.029Z,78.66
2018-06-14T02:11:07.052Z,80.24
2018-06-14T02:12:07.079Z,78.95
2018-06-14T02:13:07.103Z,78.89
2018-06-14T02:14:07.131Z,79.62
2018-06-14T02:15:07.154Z,79.62
2018-06-14T02:16:07.179Z,80.00
2018-06-14T02:17:07.201Z,82.49
2018-06-14T02:18:07.230Z,80.62
2018-06-14T02:19:07.248Z,80.04
2018-06-14T02:20:07.282Z,80.87
2018-06-14T02:21:07.298Z,79.57
2018-06-14T02:22:07.326Z,79.24
2018-06-14T02:23:07.352Z,79.24
2018-06-14T02:24:07.372Z,79.24
2018-06-14T02:25:07.402Z,79.62
2018-06-14T02:26:07.425Z,80.29
2018-06-14T02:27:07.442Z,80.77
2018-06-14T02:28:07.478Z,79.81
2018-06-14T02:29:07.493Z,79.33
2018-06-14T02:30:07.530Z,80.38
2018-06-14T02:31:07.549Z,80.38
2018-06-14T02:32:07.568Z,80.38
2018-06-14T02:33:07.595Z,80.96
2018-06-14T02:34:07.621Z,82.20
2018-06-14T02:35:07.647Z,82.01
2018-06-14T02:36:07.673Z,82.68
2018-06-14T02:37:07.695Z,82.20
2018-06-14T02:38:07.712Z,81.63
2018-06-14T02:39:07.741Z,80.96
2018-06-14T02:40:07.764Z,80.38
2018-06-14T02:41:07.787Z,81.78
2018-06-14T02:42:07.810Z,80.77
2018-06-14T02:43:07.835Z,81.59
2018-06-14T02:44:07.857Z,80.87
2018-06-14T02:45:07.882Z,82.17
2018-06-14T02:46:07.909Z,82.11
2018-06-14T02:47:07.931Z,81.97
2018-06-14T02:48:07.966Z,82.78
2018-06-14T02:49:08.003Z,82.93
2018-06-14T02:50:08.007Z,82.54
2018-06-14T02:51:08.026Z,82.74
2018-06-14T02:52:08.059Z,81.40
2018-06-14T02:53:08.078Z,82.64
2018-06-14T02:54:08.097Z,81.30
2018-06-14T02:55:08.131Z,81.88
2018-06-14T02:56:08.146Z,80.82
2018-06-14T02:57:08.175Z,83.22
2018-06-14T02:58:08.196Z,82.74
2018-06-14T02:59:08.217Z,83.40
2018-06-14T03:00:08.241Z,83.50
2018-06-14T03:01:08.271Z,83.79
2018-06-14T03:02:08.290Z,84.17
2018-06-14T03:03:08.316Z,81.97
2018-06-14T03:04:08.364Z,81.97
2018-06-14T03:05:08.363Z,83.98
2018-06-14T03:06:08.387Z,83.50
2018-06-14T03:07:08.415Z,82.74
2018-06-14T03:08:08.436Z,82.93
2018-06-14T03:09:08.465Z,83.31
2018-06-14T03:10:08.485Z,82.54
2018-06-14T03:11:08.507Z,84.08
2018-06-14T03:12:08.530Z,82.83
2018-06-14T03:13:08.551Z,82.83
2018-06-14T03:14:08.575Z,82.64
2018-06-14T03:15:08.600Z,82.64
2018-06-14T03:16:08.626Z,83.12
2018-06-14T03:17:08.646Z,83.79
2018-06-14T03:18:08.675Z,83.03
2018-06-14T03:19:08.697Z,81.97
2018-06-14T03:20:08.720Z,81.88
2018-06-14T03:21:08.741Z,81.49
2018-06-14T03:22:08.770Z,81.34
2018-06-14T03:23:08.794Z,80.44
2018-06-14T03:24:08.827Z,80.63
2018-06-14T03:25:08.844Z,80.00
2018-06-14T03:26:08.867Z,79.39
2018-06-14T03:27:08.885Z,79.87
2018-06-14T03:28:08.915Z,79.49
2018-06-14T03:29:08.938Z,79.33
2018-06-14T03:30:08.965Z,79.24
2018-06-14T03:31:08.988Z,78.81
2018-06-14T03:32:09.010Z,79.00
2018-06-14T03:33:09.037Z,79.20
2018-06-14T03:34:09.056Z,79.00
2018-06-14T03:35:09.079Z,78.81
2018-06-14T03:36:09.106Z,79.20
2018-06-14T03:37:09.125Z,78.81
2018-06-14T03:38:09.149Z,78.72
2018-06-14T03:39:09.176Z,79.29
2018-06-14T03:40:09.203Z,79.00
2018-06-14T03:41:09.224Z,79.29
2018-06-14T03:42:09.251Z,79.49
2018-06-14T03:43:09.269Z,79.29
2018-06-14T03:44:09.300Z,79.29
2018-06-14T03:45:09.325Z,80.06
2018-06-14T03:46:09.344Z,79.96
2018-06-14T03:47:09.368Z,79.49
2018-06-14T03:48:09.388Z,79.29
2018-06-14T03:49:09.418Z,80.06
2018-06-14T03:50:09.438Z,81.11
2018-06-14T03:51:09.463Z,80.10
2018-06-14T03:52:09.488Z,79.72
2018-06-14T03:53:09.511Z,79.77
2018-06-14T03:54:09.534Z,79.33
2018-06-14T03:55:09.558Z,79.91
2018-06-14T03:56:09.583Z,79.20
2018-06-14T03:57:09.608Z,79.05
2018-06-14T03:58:09.628Z,79.05
2018-06-14T03:59:09.654Z,79.05
2018-06-14T04:00:09.679Z,79.14
2018-06-14T04:01:09.703Z,78.66
2018-06-14T04:02:09.728Z,79.05
2018-06-14T04:03:09.757Z,79.14
2018-06-14T04:04:09.775Z,79.10
2018-06-14T04:05:09.799Z,78.95
2018-06-14T04:06:09.819Z,79.33
2018-06-14T04:07:09.854Z,79.33
2018-06-14T04:08:09.873Z,79.05
2018-06-14T04:09:09.897Z,79.05
2018-06-14T04:10:09.951Z,78.95
2018-06-14T04:11:09.945Z,79.14
2018-06-14T04:12:09.971Z,79.05
2018-06-14T04:13:09.992Z,79.91
2018-06-14T04:14:10.018Z,79.24
2018-06-14T04:15:10.041Z,80.29
2018-06-14T04:16:10.068Z,80.67
2018-06-14T04:17:10.087Z,79.96
2018-06-14T04:18:10.113Z,80.67
2018-06-14T04:19:10.136Z,80.38
2018-06-14T04:20:10.162Z,80.19
2018-06-14T04:21:10.183Z,79.62
2018-06-14T04:22:10.238Z,79.62
2018-06-14T04:23:10.234Z,80.00
2018-06-14T04:24:10.257Z,79.05
2018-06-14T04:25:10.292Z,79.24
2018-06-14T04:26:10.310Z,79.33
2018-06-14T04:27:10.337Z,79.33
2018-06-14T04:28:10.357Z,78.76
2018-06-14T04:29:10.383Z,79.43
2018-06-14T04:30:10.402Z,79.62
2018-06-14T04:31:10.435Z,78.86
2018-06-14T04:32:10.455Z,79.14
2018-06-14T04:33:10.476Z,78.57
2018-06-14T04:34:10.503Z,78.95
2018-06-14T04:35:10.528Z,79.05
2018-06-14T04:36:10.553Z,78.76
2018-06-14T04:37:10.572Z,78.66
2018-06-14T04:38:10.600Z,80.10
2018-06-14T04:39:10.626Z,78.86
2018-06-14T04:40:10.647Z,77.70
2018-06-14T04:41:10.671Z,77.70
2018-06-14T04:42:10.699Z,78.47
2018-06-14T04:43:10.725Z,78.09
2018-06-14T04:44:10.742Z,77.51
2018-06-14T04:45:10.766Z,77.08
2018-06-14T04:46:10.791Z,77.42
2018-06-14T04:47:10.817Z,77.42
2018-06-14T04:48:10.841Z,77.75
2018-06-14T04:49:10.871Z,77.46
2018-06-14T04:50:10.896Z,77.26
2018-06-14T04:51:10.919Z,76.79
2018-06-14T04:52:10.938Z,76.69
2018-06-14T04:53:10.965Z,76.69
2018-06-14T04:54:10.991Z,77.17
2018-06-14T04:55:11.012Z,76.50
2018-06-14T04:56:11.041Z,76.40
2018-06-14T04:57:11.082Z,76.40
2018-06-14T04:58:11.085Z,75.26
2018-06-14T04:59:11.115Z,75.39
2018-06-14T05:00:11.135Z,75.01
2018-06-14T05:01:11.165Z,76.44
2018-06-14T05:02:11.182Z,75.77
2018-06-14T05:03:11.211Z,75.29
2018-06-14T05:04:11.235Z,75.20
2018-06-14T05:05:11.268Z,74.72
2018-06-14T05:06:11.281Z,75.29
2018-06-14T05:07:11.312Z,76.44
2018-06-14T05:08:11.330Z,77.02
2018-06-14T05:09:11.367Z,76.25
2018-06-14T05:10:11.384Z,76.25
2018-06-14T05:11:11.406Z,75.68
2018-06-14T05:12:11.432Z,75.10
2018-06-14T05:13:11.457Z,75.87
2018-06-14T05:14:11.480Z,77.40
2018-06-14T05:15:11.512Z,76.35
2018-06-14T05:16:11.541Z,75.96
2018-06-14T05:17:11.557Z,76.06
2018-06-14T05:18:11.583Z,75.68
2018-06-14T05:19:11.611Z,77.59
2018-06-14T05:20:11.634Z,75.68
2018-06-14T05:21:11.656Z,75.01
2018-06-14T05:22:11.681Z,74.77
2018-06-14T05:23:11.717Z,74.91
2018-06-14T05:24:11.734Z,75.58
2018-06-14T05:25:11.758Z,75.68
2018-06-14T05:26:11.781Z,75.39
2018-06-14T05:27:11.805Z,74.72
2018-06-14T05:28:11.834Z,75.01
2018-06-14T05:29:11.864Z,75.10
2018-06-14T05:30:11.885Z,74.82
2018-06-14T05:31:11.905Z,74.82
2018-06-14T05:32:11.931Z,74.33
2018-06-14T05:33:11.955Z,74.24
2018-06-14T05:34:11.984Z,74.52
2018-06-14T05:35:12.005Z,73.95
2018-06-14T05:36:12.030Z,75.90
2018-06-14T05:37:12.056Z,75.43
2018-06-14T05:38:12.159Z,74.95
2018-06-14T05:39:12.111Z,74.05
2018-06-14T05:40:12.134Z,73.22
2018-06-14T05:41:12.154Z,74.52
2018-06-14T05:42:12.184Z,75.87
2018-06-14T05:43:12.204Z,75.01
2018-06-14T05:44:12.233Z,75.01
2018-06-14T05:45:12.256Z,75.29
2018-06-14T05:46:12.284Z,75.77
2018-06-14T05:47:12.305Z,76.15
2018-06-14T05:48:12.339Z,78.27
2018-06-14T05:49:12.364Z,76.06
2018-06-14T05:50:12.381Z,74.91
2018-06-14T05:51:12.410Z,75.62
2018-06-14T05:52:12.434Z,74.37
2018-06-14T05:53:12.457Z,74.66
2018-06-14T05:54:12.484Z,74.66
2018-06-14T05:55:12.513Z,73.70
2018-06-14T05:56:12.560Z,72.64
2018-06-14T05:57:12.563Z,73.03
2018-06-14T05:58:12.583Z,72.64
2018-06-14T05:59:12.607Z,74.47
2018-06-14T06:00:12.634Z,75.90
2018-06-14T06:01:12.661Z,73.99
2018-06-14T06:02:12.684Z,73.03
2018-06-14T06:03:12.709Z,73.51
2018-06-14T06:04:12.733Z,73.41
2018-06-14T06:05:12.760Z,74.76
2018-06-14T06:06:12.787Z,74.08
2018-06-14T06:07:12.809Z,73.61
2018-06-14T06:08:12.839Z,76.00
2018-06-14T06:09:12.871Z,74.37
2018-06-14T06:10:12.884Z,73.51
2018-06-14T06:11:12.910Z,72.36
2018-06-14T06:12:12.933Z,73.51
2018-06-14T06:13:12.963Z,74.47
2018-06-14T06:14:12.989Z,73.22
2018-06-14T06:15:13.013Z,73.51
2018-06-14T06:16:13.045Z,74.66
2018-06-14T06:17:13.059Z,75.90
2018-06-14T06:18:13.088Z,75.14
2018-06-14T06:19:13.115Z,72.55
2018-06-14T06:20:13.143Z,71.98
2018-06-14T06:21:13.168Z,72.59
2018-06-14T06:22:13.188Z,71.72
2018-06-14T06:23:13.216Z,72.27
2018-06-14T06:24:13.248Z,73.45
2018-06-14T06:25:13.264Z,72.30
2018-06-14T06:26:13.351Z,71.34
2018-06-14T06:27:13.317Z,70.83
2018-06-14T06:28:13.347Z,71.02
2018-06-14T06:29:13.373Z,71.44
2018-06-14T06:30:13.393Z,71.34
2018-06-14T06:31:13.420Z,71.05
2018-06-14T06:32:13.445Z,71.63
2018-06-14T06:33:13.504Z,71.44
2018-06-14T06:34:13.494Z,71.15
2018-06-14T06:35:13.527Z,71.82
2018-06-14T06:36:13.545Z,71.63
2018-06-14T06:37:13.568Z,73.93
2018-06-14T06:38:13.601Z,73.35
2018-06-14T06:39:13.616Z,72.68
2018-06-14T06:40:13.651Z,72.11
2018-06-14T06:41:13.672Z,72.39
2018-06-14T06:42:13.720Z,71.05
2018-06-14T06:43:13.721Z,72.01
2018-06-14T06:44:13.748Z,70.80
2018-06-14T06:45:13.786Z,70.42
2018-06-14T06:46:13.803Z,68.79
2018-06-14T06:47:13.824Z,67.92
2018-06-14T06:48:13.856Z,68.21
2018-06-14T06:49:13.882Z,69.46
2018-06-14T06:50:13.905Z,70.80
2018-06-14T06:51:13.928Z,70.70
2018-06-14T06:52:13.954Z,69.46
2018-06-14T06:53:14.044Z,67.92
2018-06-14T06:54:14.002Z,68.15
2018-06-14T06:55:14.031Z,67.00
2018-06-14T06:56:14.058Z,67.38
2018-06-14T06:57:14.082Z,66.52
2018-06-14T06:58:14.109Z,66.52
2018-06-14T06:59:14.132Z,65.62
2018-06-14T07:00:14.165Z,66.71
2018-06-14T07:01:14.187Z,66.86
2018-06-14T07:02:14.215Z,67.09
2018-06-14T07:03:14.237Z,66.80
2018-06-14T07:04:14.262Z,66.86
2018-06-14T07:05:14.291Z,67.25
2018-06-14T07:06:14.405Z,67.35
2018-06-14T07:07:14.345Z,68.21
2018-06-14T07:08:14.366Z,68.50
2018-06-14T07:09:14.391Z,68.88
2018-06-14T07:10:14.421Z,68.59
2018-06-14T07:11:14.441Z,69.07
2018-06-14T07:12:14.471Z,69.46
2018-06-14T07:13:14.497Z,68.79
2018-06-14T07:14:14.524Z,68.79
2018-06-14T07:15:14.547Z,67.73
2018-06-14T07:16:14.571Z,67.83
2018-06-14T07:17:14.597Z,68.88
2018-06-14T07:18:14.630Z,68.12
2018-06-14T07:19:14.655Z,67.83
2018-06-14T07:20:14.676Z,68.79
2018-06-14T07:21:14.704Z,68.79
2018-06-14T07:22:14.731Z,68.50
2018-06-14T07:23:14.757Z,68.50
2018-06-14T07:24:14.779Z,68.69
2018-06-14T07:25:14.810Z,68.40
2018-06-14T07:26:14.843Z,68.88
2018-06-14T07:27:14.861Z,68.69
2018-06-14T07:28:14.902Z,68.50
2018-06-14T07:29:14.914Z,68.24
2018-06-14T07:30:14.949Z,68.44
2018-06-14T07:31:14.959Z,67.57
2018-06-14T07:32:14.986Z,67.76
2018-06-14T07:33:15.010Z,67.57
2018-06-14T07:34:15.039Z,67.00
2018-06-14T07:35:15.066Z,67.76
2018-06-14T07:36:15.090Z,67.35
2018-06-14T07:37:15.120Z,67.19
2018-06-14T07:38:15.140Z,67.47
2018-06-14T07:39:15.170Z,66.90
2018-06-14T07:40:15.190Z,67.38
2018-06-14T07:41:15.215Z,67.03
2018-06-14T07:42:15.245Z,66.36
2018-06-14T07:43:15.273Z,64.63
2018-06-14T07:44:15.295Z,66.64
2018-06-14T07:45:15.332Z,64.63
2018-06-14T07:46:15.349Z,65.20
2018-06-14T07:47:15.375Z,65.20
2018-06-14T07:48:15.405Z,64.63
2018-06-14T07:49:15.430Z,64.25
2018-06-14T07:50:15.449Z,64.43
2018-06-14T07:51:15.476Z,64.85
2018-06-14T07:52:15.511Z,64.28
2018-06-14T07:53:15.525Z,64.05
2018-06-14T07:54:15.603Z,63.32
2018-06-14T07:55:15.580Z,64.25
2018-06-14T07:56:15.611Z,63.99
2018-06-14T07:57:15.634Z,63.22
2018-06-14T07:58:15.665Z,64.47
2018-06-14T07:59:15.689Z,64.76
2018-06-14T08:00:15.714Z,64.66
2018-06-14T08:01:15.742Z,65.33
2018-06-14T08:02:15.774Z,66.87
2018-06-14T08:03:15.795Z,65.81
2018-06-14T08:04:15.817Z,64.37
2018-06-14T08:05:15.851Z,65.14
2018-06-14T08:06:15.876Z,65.78
2018-06-14T08:07:15.897Z,64.76
2018-06-14T08:08:15.926Z,64.47
2018-06-14T08:09:15.950Z,64.66
2018-06-14T08:10:15.978Z,64.18
2018-06-14T08:11:16.008Z,64.47
2018-06-14T08:12:16.084Z,64.28
2018-06-14T08:13:16.058Z,65.01
2018-06-14T08:14:16.082Z,68.08
2018-06-14T08:15:16.109Z,66.93
2018-06-14T08:16:16.133Z,65.11
2018-06-14T08:17:16.167Z,66.36
2018-06-14T08:18:16.193Z,66.58
2018-06-14T08:19:16.223Z,66.84
2018-06-14T08:20:16.249Z,68.02
2018-06-14T08:21:16.269Z,69.95
2018-06-14T08:22:16.297Z,68.60
2018-06-14T08:23:16.321Z,66.00
2018-06-14T08:24:16.348Z,65.23
2018-06-14T08:25:16.374Z,64.56
2018-06-14T08:26:16.406Z,65.05
2018-06-14T08:27:16.430Z,64.18
2018-06-14T08:28:16.459Z,64.56
2018-06-14T08:29:16.479Z,66.77
2018-06-14T08:30:16.506Z,64.85
2018-06-14T08:31:16.534Z,65.72
2018-06-14T08:32:16.564Z,65.33
2018-06-14T08:33:16.588Z,65.05
2018-06-14T08:34:16.615Z,64.22
2018-06-14T08:35:16.638Z,63.15
2018-06-14T08:36:16.671Z,63.25
2018-06-14T08:37:16.697Z,63.15
2018-06-14T08:38:16.717Z,63.45
2018-06-14T08:39:16.743Z,64.31
2018-06-14T08:40:16.775Z,65.27
2018-06-14T08:41:16.802Z,63.89
2018-06-14T08:42:16.824Z,63.22
2018-06-14T08:43:16.850Z,64.85
2018-06-14T08:44:16.876Z,64.47
2018-06-14T08:45:16.904Z,65.62
2018-06-14T08:46:16.929Z,63.70
2018-06-14T08:47:16.954Z,64.76
2018-06-14T08:48:16.984Z,64.56
2018-06-14T08:49:17.008Z,65.43
2018-06-14T08:50:17.036Z,65.23
2018-06-14T08:51:17.067Z,63.60
2018-06-14T08:52:17.087Z,63.70
2018-06-14T08:53:17.112Z,63.22
2018-06-14T08:54:17.144Z,63.22
2018-06-14T08:55:17.173Z,62.74
2018-06-14T08:56:17.194Z,63.22
2018-06-14T08:57:17.220Z,61.97
2018-06-14T08:58:17.246Z,63.02
2018-06-14T08:59:17.275Z,63.32
2018-06-14T09:00:17.298Z,62.93
2018-06-14T09:01:17.325Z,63.22
2018-06-14T09:02:17.355Z,63.32
2018-06-14T09:03:17.380Z,66.61
2018-06-14T09:04:17.405Z,63.83
2018-06-14T09:05:17.427Z,62.29
2018-06-14T09:06:17.468Z,62.19
2018-06-14T09:07:17.483Z,64.31
2018-06-14T09:08:17.511Z,64.12
2018-06-14T09:09:17.540Z,63.83
2018-06-14T09:10:17.568Z,63.76
2018-06-14T09:11:17.588Z,62.71
2018-06-14T09:12:17.614Z,62.71
2018-06-14T09:13:17.641Z,62.74
2018-06-14T09:14:17.771Z,62.03
2018-06-14T09:15:17.693Z,60.33
2018-06-14T09:16:17.722Z,59.37
2018-06-14T09:17:17.747Z,59.53
2018-06-14T09:18:17.769Z,59.53
2018-06-14T09:19:17.796Z,59.63
2018-06-14T09:20:17.824Z,59.44
2018-06-14T09:21:17.851Z,60.78
2018-06-14T09:22:17.886Z,60.49
2018-06-14T09:23:17.907Z,58.37
2018-06-14T09:24:17.935Z,59.24
2018-06-14T09:25:17.962Z,60.30
2018-06-14T09:26:17.988Z,61.84
2018-06-14T09:27:18.014Z,62.13
2018-06-14T09:28:18.043Z,59.92
2018-06-14T09:29:18.073Z,59.92
2018-06-14T09:30:18.097Z,59.08
2018-06-14T09:31:18.118Z,57.64
2018-06-14T09:32:18.139Z,58.40
2018-06-14T09:33:18.168Z,59.56
2018-06-14T09:34:18.199Z,59.08
2018-06-14T09:35:18.219Z,60.04
2018-06-14T09:36:18.253Z,58.31
2018-06-14T09:37:18.278Z,58.40
2018-06-14T09:38:18.302Z,61.94
2018-06-14T09:39:18.337Z,64.73
2018-06-14T09:40:18.360Z,62.68
2018-06-14T09:41:18.382Z,61.52
2018-06-14T09:42:18.413Z,60.11
2018-06-14T09:43:18.439Z,62.29
2018-06-14T09:44:18.465Z,63.57
2018-06-14T09:45:18.495Z,62.03
2018-06-14T09:46:18.521Z,61.71
2018-06-14T09:47:18.543Z,63.15
2018-06-14T09:48:18.571Z,64.12
2018-06-14T09:49:18.598Z,64.92
2018-06-14T09:50:18.670Z,62.61
2018-06-14T09:51:18.649Z,61.94
2018-06-14T09:52:18.678Z,59.34
2018-06-14T09:53:18.702Z,58.22
2018-06-14T09:54:18.731Z,57.83
2018-06-14T09:55:18.755Z,58.98
2018-06-14T09:56:18.787Z,59.85
2018-06-14T09:57:18.816Z,60.42
2018-06-14T09:58:18.835Z,59.17
2018-06-14T09:59:18.864Z,58.60
2018-06-14T10:00:18.943Z,61.49
2018-06-14T10:01:18.912Z,59.08
2018-06-14T10:02:18.947Z,56.99
2018-06-14T10:03:18.969Z,56.80
2018-06-14T10:04:18.995Z,56.60
2018-06-14T10:05:19.021Z,56.15
2018-06-14T10:06:19.049Z,56.05
2018-06-14T10:07:19.076Z,55.57
2018-06-14T10:08:19.109Z,55.55
2018-06-14T10:09:19.129Z,56.32
2018-06-14T10:10:19.158Z,56.99
2018-06-14T10:11:19.184Z,57.28
2018-06-14T10:12:19.212Z,59.75
2018-06-14T10:13:19.237Z,61.49
2018-06-14T10:14:19.267Z,60.52
2018-06-14T10:15:19.292Z,58.02
2018-06-14T10:16:19.323Z,57.54
2018-06-14T10:17:19.348Z,57.83
2018-06-14T10:18:19.377Z,60.24
2018-06-14T10:19:19.405Z,58.31
2018-06-14T10:20:19.427Z,58.31
2018-06-14T10:21:19.459Z,57.06
2018-06-14T10:22:19.488Z,57.06
2018-06-14T10:23:19.514Z,56.60
2018-06-14T10:24:19.538Z,57.67
2018-06-14T10:25:19.565Z,56.80
2018-06-14T10:26:19.595Z,55.26
2018-06-14T10:27:19.620Z,57.76
2018-06-14T10:28:19.649Z,59.11
2018-06-14T10:29:19.729Z,55.93
2018-06-14T10:30:19.701Z,56.12
2018-06-14T10:31:19.731Z,54.49
2018-06-14T10:32:19.762Z,54.52
2018-06-14T10:33:19.783Z,54.03
2018-06-14T10:34:19.808Z,54.52
2018-06-14T10:35:19.840Z,54.03
2018-06-14T10:36:19.862Z,54.74
2018-06-14T10:37:19.998Z,52.13
2018-06-14T10:38:19.921Z,52.35
2018-06-14T10:39:19.951Z,51.68
2018-06-14T10:40:19.975Z,51.58
2018-06-14T10:41:20.003Z,50.71
2018-06-14T10:42:20.029Z,50.62
2018-06-14T10:43:20.061Z,51.48
2018-06-14T10:44:20.086Z,51.10
2018-06-14T10:45:20.106Z,51.68
2018-06-14T10:46:20.139Z,50.52
2018-06-14T10:47:20.176Z,50.42
2018-06-14T10:48:20.196Z,49.73
2018-06-14T10:49:20.219Z,50.40
2018-06-14T10:50:20.246Z,52.33
2018-06-14T10:51:20.279Z,52.64
2018-06-14T10:52:20.331Z,52.06
2018-06-14T10:53:20.332Z,53.13
2018-06-14T10:54:20.362Z,51.65
2018-06-14T10:55:20.387Z,52.42
2018-06-14T10:56:20.418Z,52.64
2018-06-14T10:57:20.441Z,53.03
2018-06-14T10:58:20.477Z,54.88
2018-06-14T10:59:20.507Z,50.54
2018-06-14T11:00:20.533Z,51.63
2018-06-14T11:01:20.553Z,52.31
2018-06-14T11:02:20.582Z,52.43
2018-06-14T11:03:20.612Z,51.65
2018-06-14T11:04:20.640Z,49.53
2018-06-14T11:05:20.666Z,47.81
2018-06-14T11:06:20.692Z,47.33
2018-06-14T11:07:20.729Z,45.91
2018-06-14T11:08:20.750Z,46.10
2018-06-14T11:09:20.779Z,45.79
2018-06-14T11:10:20.807Z,46.06
2018-06-14T11:11:20.839Z,46.71
2018-06-14T11:12:20.865Z,46.51
2018-06-14T11:13:20.895Z,47.19
2018-06-14T11:14:20.922Z,47.96
2018-06-14T11:15:20.955Z,47.07
2018-06-14T11:16:20.986Z,46.90
2018-06-14T11:17:21.010Z,45.21
2018-06-14T11:18:21.042Z,42.35
2018-06-14T11:19:21.072Z,43.76
2018-06-14T11:20:21.161Z,45.00
2018-06-14T11:21:21.130Z,46.03
2018-06-14T11:22:21.159Z,45.37
2018-06-14T11:23:21.187Z,40.89
2018-06-14T11:24:21.228Z,38.09
2018-06-14T11:25:21.247Z,36.91
2018-06-14T11:26:21.279Z,37.34
2018-06-14T11:27:21.311Z,35.74
2018-06-14T11:28:21.335Z,35.86
2018-06-14T11:29:21.363Z,33.64
2018-06-14T11:30:21.395Z,33.54
2018-06-14T11:31:21.429Z,36.00
2018-06-14T11:32:21.460Z,38.76
2018-06-14T11:33:21.501Z,39.76
2018-06-14T11:34:21.519Z,43.03
2018-06-14T11:35:21.556Z,43.99
2018-06-14T11:36:21.579Z,44.09
2018-06-14T11:37:21.618Z,43.78
2018-06-14T11:38:21.639Z,44.07
2018-06-14T11:39:21.679Z,43.20
2018-06-14T11:40:21.703Z,42.43
2018-06-14T11:41:21.733Z,41.85
2018-06-14T11:42:21.767Z,41.39
2018-06-14T11:43:21.796Z,40.75
2018-06-14T11:44:21.829Z,39.32
2018-06-14T11:45:21.860Z,36.87
2018-06-14T11:46:21.888Z,34.42
2018-06-14T11:47:21.917Z,32.52
2018-06-14T11:48:21.985Z,32.20
2018-06-14T11:49:21.981Z,32.65
2018-06-14T11:50:22.009Z,34.36
2018-06-14T11:51:22.037Z,34.93
2018-06-14T11:52:22.073Z,36.44
2018-06-14T11:53:22.110Z,37.57
2018-06-14T11:54:22.137Z,40.07
2018-06-14T11:55:22.164Z,41.60
2018-06-14T11:56:22.200Z,39.61
2018-06-14T11:57:22.226Z,35.75
2018-06-14T11:58:22.257Z,36.19
2018-06-14T11:59:24.915Z,32.89
2018-06-14T12:00:22.318Z,31.24
2018-06-14T12:01:22.348Z,32.67
2018-06-14T12:02:22.383Z,34.85
2018-06-14T12:03:22.414Z,35.67
2018-06-14T12:04:22.448Z,35.88
2018-06-14T12:05:22.477Z,36.72
2018-06-14T12:06:22.507Z,38.70
2018-06-14T12:07:22.540Z,39.67
2018-06-14T12:08:22.591Z,40.11
2018-06-14T12:09:22.606Z,40.50
2018-06-14T12:10:22.633Z,41.73
2018-06-14T12:11:22.667Z,43.51
2018-06-14T12:12:22.693Z,42.83
2018-06-14T12:13:22.723Z,41.11
2018-06-14T12:14:22.761Z,38.21
2018-06-14T12:15:22.791Z,34.59
2018-06-14T12:16:22.819Z,32.59
2018-06-14T12:17:22.851Z,33.80
2018-06-14T12:18:22.876Z,36.18
2018-06-14T12:19:22.916Z,36.90
2018-06-14T12:20:22.942Z,37.94
2018-06-14T12:21:23.019Z,39.18
2018-06-14T12:22:23.007Z,38.23
2018-06-14T12:23:23.035Z,39.76
2018-06-14T12:24:23.075Z,40.23
2018-06-14T12:25:23.099Z,38.23
2018-06-14T12:26:23.137Z,39.41
2018-06-14T12:27:23.162Z,34.56
2018-06-14T12:28:23.198Z,32.94
2018-06-14T12:29:23.230Z,32.32
2018-06-14T12:30:23.260Z,29.22
2018-06-14T12:31:23.289Z,27.95
2018-06-14T12:32:23.321Z,29.44
2018-06-14T12:33:23.351Z,30.05
2018-06-14T12:34:23.380Z,31.57
2018-06-14T12:35:23.419Z,32.99
2018-06-14T12:36:23.454Z,33.78
2018-06-14T12:37:23.483Z,34.43
2018-06-14T12:38:23.524Z,34.75
2018-06-14T12:39:23.554Z,32.94
2018-06-14T12:40:23.579Z,31.60
2018-06-14T12:41:23.620Z,32.89
2018-06-14T12:42:23.643Z,34.43
2018-06-14T12:43:23.676Z,33.41
2018-06-14T12:44:23.713Z,29.97
2018-06-14T12:45:23.745Z,29.18
2018-06-14T12:46:23.785Z,30.90
2018-06-14T12:47:23.819Z,33.47
2018-06-14T12:48:23.839Z,37.69
2018-06-14T12:49:23.879Z,38.93
2018-06-14T12:50:23.910Z,38.64
2018-06-14T12:51:23.940Z,36.90
2018-06-14T12:52:24.052Z,37.07